createdAt,value
2022-09-12T00:00:51.850Z,0.00
2022-09-12T00:01:51.878Z,0.00
2022-09-12T00:02:51.782Z,0.00
2022-09-12T00:03:51.768Z,0.00
2022-09-12T00:04:51.759Z,0.00
2022-09-12T00:05:51.746Z,0.00
2022-09-12T00:06:51.734Z,0.00
2022-09-12T00:07:51.824Z,0.00
2022-09-12T00:08:51.716Z,0.00
2022-09-12T00:09:51.701Z,0.00
2022-09-12T00:10:51.717Z,0.00
2022-09-12T00:11:51.686Z,0.00
2022-09-12T00:12:51.676Z,0.00
2022-09-12T00:13:51.665Z,0.00
2022-09-12T00:14:51.653Z,0.00
2022-09-12T00:15:51.643Z,0.00
2022-09-12T00:16:51.701Z,0.00
2022-09-12T00:17:51.645Z,0.00
2022-09-12T00:18:51.609Z,0.00
2022-09-12T00:19:51.601Z,0.00
2022-09-12T00:20:51.598Z,0.00
2022-09-12T00:21:51.588Z,0.00
2022-09-12T00:22:51.570Z,0.00
2022-09-12T00:23:51.612Z,0.00
2022-09-12T00:24:51.553Z,0.00
2022-09-12T00:25:51.541Z,0.00
2022-09-12T00:26:51.528Z,0.00
2022-09-12T00:27:51.518Z,0.00
2022-09-12T00:28:51.510Z,0.00
2022-09-12T00:29:51.503Z,0.00
2022-09-12T00:30:51.490Z,0.00
2022-09-12T00:31:51.540Z,0.00
2022-09-12T00:32:51.468Z,0.00
2022-09-12T00:33:51.479Z,0.00
2022-09-12T00:34:51.445Z,0.00
2022-09-12T00:35:51.442Z,0.00
2022-09-12T00:36:51.630Z,0.00
2022-09-12T00:37:51.423Z,0.00
2022-09-12T00:38:51.404Z,0.00
2022-09-12T00:39:51.431Z,0.00
2022-09-12T00:40:51.385Z,0.00
2022-09-12T00:41:51.371Z,0.00
2022-09-12T00:42:51.362Z,0.00
2022-09-12T00:43:51.353Z,0.00
2022-09-12T00:44:51.347Z,0.00
2022-09-12T00:45:51.361Z,0.00
2022-09-12T00:46:51.321Z,0.00
2022-09-12T00:47:51.314Z,0.00
2022-09-12T00:48:51.361Z,0.00
2022-09-12T00:49:57.376Z,0.00
2022-09-12T00:50:51.284Z,0.00
2022-09-12T00:51:51.488Z,0.00
2022-09-12T00:52:51.259Z,0.00
2022-09-12T00:53:51.249Z,0.00
2022-09-12T00:54:51.237Z,0.00
2022-09-12T00:55:51.226Z,0.00
2022-09-12T00:56:51.216Z,0.00
2022-09-12T00:57:51.209Z,0.00
2022-09-12T00:58:51.206Z,0.00
2022-09-12T00:59:51.185Z,0.00
2022-09-12T01:00:51.198Z,0.00
2022-09-12T01:01:51.381Z,0.00
2022-09-12T01:02:51.159Z,0.00
2022-09-12T01:03:51.147Z,0.00
2022-09-12T01:04:51.188Z,0.00
2022-09-12T01:05:51.145Z,0.00
2022-09-12T01:06:51.124Z,0.00
2022-09-12T01:07:51.106Z,0.00
2022-09-12T01:08:51.195Z,0.00
2022-09-12T01:09:51.085Z,0.00
2022-09-12T01:10:51.073Z,0.00
2022-09-12T01:11:51.060Z,0.00
2022-09-12T01:12:51.053Z,0.00
2022-09-12T01:13:51.042Z,0.00
2022-09-12T01:14:51.038Z,0.00
2022-09-12T01:15:51.019Z,0.00
2022-09-12T01:16:51.017Z,0.00
2022-09-12T01:17:51.001Z,0.00
2022-09-12T01:18:56.999Z,0.00
2022-09-12T01:19:50.978Z,0.00
2022-09-12T01:20:50.971Z,0.00
2022-09-12T01:21:50.982Z,0.00
2022-09-12T01:22:50.949Z,0.00
2022-09-12T01:23:50.941Z,0.00
2022-09-12T01:24:50.929Z,0.00
2022-09-12T01:25:50.915Z,0.00
2022-09-12T01:26:50.969Z,0.00
2022-09-12T01:27:50.904Z,0.00
2022-09-12T01:28:50.893Z,0.00
2022-09-12T01:29:50.888Z,0.00
2022-09-12T01:30:50.868Z,0.00
2022-09-12T01:31:50.906Z,0.00
2022-09-12T01:32:50.852Z,0.00
2022-09-12T01:33:50.832Z,0.00
2022-09-12T01:34:50.834Z,0.00
2022-09-12T01:35:50.814Z,0.00
2022-09-12T01:36:50.804Z,0.00
2022-09-12T01:37:50.868Z,0.00
2022-09-12T01:38:50.790Z,0.00
2022-09-12T01:39:50.867Z,0.00
2022-09-12T01:40:50.761Z,0.00
2022-09-12T01:41:50.755Z,0.00
2022-09-12T01:42:50.756Z,0.00
2022-09-12T01:43:50.731Z,0.00
2022-09-12T01:44:50.723Z,0.00
2022-09-12T01:45:50.765Z,0.00
2022-09-12T01:46:50.703Z,0.00
2022-09-12T01:47:50.691Z,0.00
2022-09-12T01:48:50.683Z,0.00
2022-09-12T01:49:50.672Z,0.00
2022-09-12T01:50:50.664Z,0.00
2022-09-12T01:51:50.653Z,0.00
2022-09-12T01:52:50.637Z,0.00
2022-09-12T01:53:56.658Z,0.00
2022-09-12T01:54:50.670Z,0.00
2022-09-12T01:55:50.608Z,0.00
2022-09-12T01:56:50.597Z,0.00
2022-09-12T01:57:50.793Z,0.00
2022-09-12T01:58:50.577Z,0.00
2022-09-12T01:59:50.570Z,0.00
2022-09-12T02:00:56.624Z,0.00
2022-09-12T02:01:50.595Z,0.00
2022-09-12T02:02:50.537Z,0.00
2022-09-12T02:03:50.525Z,0.00
2022-09-12T02:04:50.513Z,0.00
2022-09-12T02:05:50.511Z,0.00
2022-09-12T02:06:50.497Z,0.00
2022-09-12T02:07:50.482Z,0.00
2022-09-12T02:08:50.474Z,0.00
2022-09-12T02:09:50.527Z,0.00
2022-09-12T02:10:50.454Z,0.00
2022-09-12T02:11:50.439Z,0.00
2022-09-12T02:12:50.529Z,0.00
2022-09-12T02:13:50.610Z,0.00
2022-09-12T02:14:50.408Z,0.00
2022-09-12T02:15:50.397Z,0.00
2022-09-12T02:16:50.399Z,0.00
2022-09-12T02:17:50.583Z,0.00
2022-09-12T02:18:50.375Z,0.00
2022-09-12T02:19:50.358Z,0.00
2022-09-12T02:20:50.348Z,0.00
2022-09-12T02:21:50.336Z,0.00
2022-09-12T02:22:50.329Z,0.00
2022-09-12T02:23:50.322Z,0.00
2022-09-12T02:24:50.309Z,0.00
2022-09-12T02:25:50.319Z,0.00
2022-09-12T02:26:50.283Z,0.00
2022-09-12T02:27:50.278Z,0.00
2022-09-12T02:28:50.267Z,0.00
2022-09-12T02:29:50.256Z,0.00
2022-09-12T02:30:50.291Z,0.00
2022-09-12T02:31:50.232Z,0.00
2022-09-12T02:32:50.224Z,0.00
2022-09-12T02:33:50.214Z,0.00
2022-09-12T02:34:50.201Z,0.00
2022-09-12T02:35:50.192Z,0.00
2022-09-12T02:36:50.185Z,0.00
2022-09-12T02:37:50.174Z,0.00
2022-09-12T02:38:50.163Z,0.00
2022-09-12T02:39:50.175Z,0.00
2022-09-12T02:40:50.142Z,0.00
2022-09-12T02:41:50.156Z,0.00
2022-09-12T02:42:56.125Z,0.00
2022-09-12T02:43:50.110Z,0.00
2022-09-12T02:44:50.099Z,0.00
2022-09-12T02:45:50.130Z,0.00
2022-09-12T02:46:50.078Z,0.00
2022-09-12T02:47:50.068Z,0.00
2022-09-12T02:48:50.055Z,0.00
2022-09-12T02:49:50.046Z,0.00
2022-09-12T02:50:50.036Z,0.00
2022-09-12T02:51:50.028Z,0.00
2022-09-12T02:52:50.015Z,0.00
2022-09-12T02:53:50.005Z,0.00
2022-09-12T02:54:49.999Z,0.00
2022-09-12T02:55:49.984Z,0.00
2022-09-12T02:56:49.973Z,0.00
2022-09-12T02:57:49.990Z,0.00
2022-09-12T02:58:49.954Z,0.00
2022-09-12T02:59:49.945Z,0.00
2022-09-12T03:00:55.973Z,0.00
2022-09-12T03:01:49.951Z,0.00
2022-09-12T03:02:49.909Z,0.00
2022-09-12T03:03:49.900Z,0.00
2022-09-12T03:04:49.889Z,0.00
2022-09-12T03:05:49.881Z,0.00
2022-09-12T03:06:49.869Z,0.00
2022-09-12T03:07:49.856Z,0.00
2022-09-12T03:08:49.849Z,0.00
2022-09-12T03:09:49.838Z,0.00
2022-09-12T03:10:49.827Z,0.00
2022-09-12T03:11:49.816Z,0.00
2022-09-12T03:12:49.807Z,0.00
2022-09-12T03:13:49.817Z,0.00
2022-09-12T03:14:49.786Z,0.00
2022-09-12T03:15:49.778Z,0.00
2022-09-12T03:16:49.806Z,0.00
2022-09-12T03:17:49.751Z,0.00
2022-09-12T03:18:49.742Z,0.00
2022-09-12T03:19:49.732Z,0.00
2022-09-12T03:20:49.721Z,0.00
2022-09-12T03:21:49.712Z,0.00
2022-09-12T03:22:51.182Z,0.00
2022-09-12T03:23:49.689Z,0.00
2022-09-12T03:24:49.683Z,0.00
2022-09-12T03:25:49.672Z,0.00
2022-09-12T03:26:49.658Z,0.00
2022-09-12T03:27:49.652Z,0.00
2022-09-12T03:28:49.640Z,0.00
2022-09-12T03:29:49.649Z,0.00
2022-09-12T03:30:49.677Z,0.00
2022-09-12T03:31:49.608Z,0.00
2022-09-12T03:32:49.597Z,0.00
2022-09-12T03:33:49.585Z,0.00
2022-09-12T03:34:49.574Z,0.00
2022-09-12T03:35:49.566Z,0.00
2022-09-12T03:36:49.552Z,0.00
2022-09-12T03:37:49.543Z,0.00
2022-09-12T03:38:49.531Z,0.00
2022-09-12T03:39:49.538Z,0.00
2022-09-12T03:40:54.564Z,0.00
2022-09-12T03:41:49.507Z,0.00
2022-09-12T03:42:49.494Z,0.00
2022-09-12T03:43:55.492Z,0.00
2022-09-12T03:44:49.467Z,0.00
2022-09-12T03:45:49.520Z,0.00
2022-09-12T03:46:49.446Z,0.00
2022-09-12T03:47:49.637Z,0.00
2022-09-12T03:48:49.425Z,0.00
2022-09-12T03:49:49.417Z,0.00
2022-09-12T03:50:49.406Z,0.00
2022-09-12T03:51:49.395Z,0.00
2022-09-12T03:52:49.384Z,0.00
2022-09-12T03:53:49.379Z,0.00
2022-09-12T03:54:49.364Z,0.00
2022-09-12T03:55:49.353Z,0.00
2022-09-12T03:56:49.344Z,0.00
2022-09-12T03:57:49.338Z,0.00
2022-09-12T03:58:49.320Z,0.00
2022-09-12T03:59:49.311Z,0.00
2022-09-12T04:00:49.550Z,0.00
2022-09-12T04:01:49.316Z,0.00
2022-09-12T04:02:49.281Z,0.00
2022-09-12T04:03:49.271Z,0.00
2022-09-12T04:04:49.264Z,0.00
2022-09-12T04:05:49.250Z,0.00
2022-09-12T04:06:49.238Z,0.00
2022-09-12T04:07:49.226Z,0.00
2022-09-12T04:08:49.213Z,0.00
2022-09-12T04:09:49.204Z,0.00
2022-09-12T04:10:49.197Z,0.00
2022-09-12T04:11:49.185Z,0.00
2022-09-12T04:12:55.286Z,0.00
2022-09-12T04:13:49.167Z,0.00
2022-09-12T04:14:49.156Z,0.00
2022-09-12T04:15:49.206Z,0.00
2022-09-12T04:16:49.168Z,0.00
2022-09-12T04:17:49.146Z,0.00
2022-09-12T04:18:49.141Z,0.00
2022-09-12T04:19:49.105Z,0.00
2022-09-12T04:20:49.091Z,0.00
2022-09-12T04:21:49.079Z,0.00
2022-09-12T04:22:49.068Z,0.00
2022-09-12T04:23:49.061Z,0.00
2022-09-12T04:24:49.049Z,0.00
2022-09-12T04:25:49.039Z,0.00
2022-09-12T04:26:49.026Z,0.00
2022-09-12T04:27:49.021Z,0.00
2022-09-12T04:28:49.005Z,0.00
2022-09-12T04:29:49.197Z,0.00
2022-09-12T04:30:49.044Z,0.00
2022-09-12T04:31:48.974Z,0.00
2022-09-12T04:32:48.970Z,0.00
2022-09-12T04:33:48.979Z,0.00
2022-09-12T04:34:48.943Z,0.00
2022-09-12T04:35:48.879Z,1.00
2022-09-12T04:36:48.925Z,0.00
2022-09-12T04:37:48.872Z,1.00
2022-09-12T04:38:54.856Z,1.00
2022-09-12T04:39:49.010Z,0.00
2022-09-12T04:40:48.881Z,0.00
2022-09-12T04:41:48.830Z,2.00
2022-09-12T04:42:48.808Z,1.00
2022-09-12T04:43:48.808Z,2.00
2022-09-12T04:44:48.785Z,1.00
2022-09-12T04:45:48.792Z,1.00
2022-09-12T04:46:48.761Z,2.00
2022-09-12T04:47:48.756Z,1.00
2022-09-12T04:48:50.524Z,2.00
2022-09-12T04:49:48.752Z,3.00
2022-09-12T04:50:48.719Z,3.00
2022-09-12T04:51:48.710Z,3.00
2022-09-12T04:52:48.707Z,4.00
2022-09-12T04:53:48.692Z,5.00
2022-09-12T04:54:48.681Z,9.00
2022-09-12T04:55:48.671Z,7.00
2022-09-12T04:56:48.662Z,8.00
2022-09-12T04:57:48.646Z,10.00
2022-09-12T04:58:48.641Z,12.00
2022-09-12T04:59:48.630Z,12.00
2022-09-12T05:00:48.621Z,25.00
2022-09-12T05:01:48.792Z,20.00
2022-09-12T05:02:48.594Z,28.00
2022-09-12T05:03:48.593Z,32.00
2022-09-12T05:04:48.627Z,40.00
2022-09-12T05:05:48.586Z,43.00
2022-09-12T05:06:48.552Z,48.00
2022-09-12T05:07:48.545Z,51.00
2022-09-12T05:08:48.538Z,60.00
2022-09-12T05:09:48.520Z,64.00
2022-09-12T05:10:48.512Z,77.00
2022-09-12T05:12:05.518Z,79.00
2022-09-12T05:12:49.525Z,87.00
2022-09-12T05:13:48.477Z,95.00
2022-09-12T05:14:48.466Z,102.00
2022-09-12T05:15:48.471Z,114.00
2022-09-12T05:16:49.574Z,112.00
2022-09-12T05:17:48.435Z,120.00
2022-09-12T05:18:48.424Z,144.00
2022-09-12T05:19:48.493Z,137.00
2022-09-12T05:20:48.403Z,153.00
2022-09-12T05:21:48.418Z,172.00
2022-09-12T05:22:48.381Z,172.00
2022-09-12T05:23:48.370Z,182.00
2022-09-12T05:24:50.549Z,197.00
2022-09-12T05:25:48.352Z,215.00
2022-09-12T05:26:48.342Z,204.00
2022-09-12T05:27:50.528Z,229.00
2022-09-12T05:28:48.369Z,201.00
2022-09-12T05:29:48.314Z,243.00
2022-09-12T05:30:48.508Z,244.00
2022-09-12T05:31:48.489Z,253.00
2022-09-12T05:32:48.278Z,295.00
2022-09-12T05:33:48.265Z,265.00
2022-09-12T05:34:48.259Z,330.00
2022-09-12T05:35:48.249Z,302.00
2022-09-12T05:36:48.240Z,301.00
2022-09-12T05:37:48.246Z,378.00
2022-09-12T05:38:48.214Z,375.00
2022-09-12T05:39:48.220Z,385.00
2022-09-12T05:40:48.199Z,385.00
2022-09-12T05:41:48.187Z,401.00
2022-09-12T05:42:48.177Z,380.00
2022-09-12T05:43:48.168Z,397.00
2022-09-12T05:44:48.148Z,443.00
2022-09-12T05:45:48.169Z,464.00
2022-09-12T05:46:48.129Z,405.00
2022-09-12T05:47:48.125Z,412.00
2022-09-12T05:48:50.471Z,402.00
2022-09-12T05:49:48.101Z,415.00
2022-09-12T05:50:48.088Z,415.00
2022-09-12T05:51:48.284Z,494.00
2022-09-12T05:52:48.068Z,526.00
2022-09-12T05:53:48.082Z,593.00
2022-09-12T05:54:48.049Z,556.00
2022-09-12T05:55:48.037Z,491.00
2022-09-12T05:56:48.025Z,549.00
2022-09-12T05:57:48.013Z,583.00
2022-09-12T05:58:48.006Z,543.00
2022-09-12T05:59:47.996Z,530.00
2022-09-12T06:00:47.983Z,475.00
2022-09-12T06:01:48.061Z,468.00
2022-09-12T06:02:47.963Z,617.00
2022-09-12T06:03:47.953Z,785.00
2022-09-12T06:04:47.943Z,795.00
2022-09-12T06:05:50.631Z,864.00
2022-09-12T06:06:48.226Z,766.00
2022-09-12T06:07:47.913Z,741.00
2022-09-12T06:08:48.172Z,895.00
2022-09-12T06:09:47.920Z,755.00
2022-09-12T06:10:47.879Z,705.00
2022-09-12T06:11:47.867Z,786.00
2022-09-12T06:12:48.065Z,828.00
2022-09-12T06:13:47.847Z,892.00
2022-09-12T06:14:47.840Z,785.00
2022-09-12T06:15:47.827Z,827.00
2022-09-12T06:16:48.095Z,923.00
2022-09-12T06:17:51.295Z,876.00
2022-09-12T06:18:47.791Z,891.00
2022-09-12T06:19:47.786Z,880.00
2022-09-12T06:20:47.778Z,901.00
2022-09-12T06:21:47.766Z,1018.00
2022-09-12T06:22:47.754Z,1073.00
2022-09-12T06:23:47.757Z,1084.00
2022-09-12T06:24:47.731Z,1096.00
2022-09-12T06:25:47.798Z,1317.00
2022-09-12T06:26:47.716Z,1197.00
2022-09-12T06:27:47.703Z,1279.00
2022-09-12T06:28:47.763Z,1270.00
2022-09-12T06:29:47.679Z,1132.00
2022-09-12T06:30:47.706Z,1171.00
2022-09-12T06:31:47.662Z,1388.00
2022-09-12T06:32:47.647Z,1305.00
2022-09-12T06:33:47.638Z,1411.00
2022-09-12T06:34:47.833Z,1413.00
2022-09-12T06:35:47.717Z,1349.00
2022-09-12T06:36:47.606Z,1664.00
2022-09-12T06:37:47.597Z,1593.00
2022-09-12T06:38:47.674Z,1346.00
2022-09-12T06:39:47.593Z,1113.00
2022-09-12T06:40:47.560Z,1285.00
2022-09-12T06:41:47.581Z,1401.00
2022-09-12T06:42:47.547Z,1467.00
2022-09-12T06:43:47.529Z,1793.00
2022-09-12T06:44:47.521Z,1750.00
2022-09-12T06:45:47.540Z,1535.00
2022-09-12T06:46:47.553Z,1713.00
2022-09-12T06:47:47.693Z,1646.00
2022-09-12T06:48:47.538Z,1196.00
2022-09-12T06:49:47.471Z,1867.00
2022-09-12T06:50:47.458Z,1512.00
2022-09-12T06:51:47.448Z,1866.00
2022-09-12T06:52:47.441Z,1249.00
2022-09-12T06:53:47.426Z,1257.00
2022-09-12T06:54:47.420Z,1459.00
2022-09-12T06:55:47.407Z,1493.00
2022-09-12T06:56:47.396Z,1313.00
2022-09-12T06:57:47.409Z,1942.00
2022-09-12T06:58:47.639Z,1386.00
2022-09-12T06:59:53.372Z,1536.00
2022-09-12T07:00:47.354Z,1596.00
2022-09-12T07:01:47.437Z,1749.00
2022-09-12T07:02:47.334Z,1901.00
2022-09-12T07:03:47.324Z,1970.00
2022-09-12T07:04:47.318Z,1776.00
2022-09-12T07:05:47.304Z,1869.00
2022-09-12T07:06:47.295Z,1698.00
2022-09-12T07:07:47.289Z,2130.00
2022-09-12T07:08:47.273Z,1818.00
2022-09-12T07:09:47.261Z,1908.00
2022-09-12T07:10:47.252Z,2142.00
2022-09-12T07:11:47.246Z,2307.00
2022-09-12T07:12:47.230Z,2427.00
2022-09-12T07:13:47.395Z,2509.00
2022-09-12T07:14:47.209Z,1946.00
2022-09-12T07:15:47.195Z,1318.00
2022-09-12T07:16:47.212Z,2077.00
2022-09-12T07:17:47.174Z,2195.00
2022-09-12T07:18:47.169Z,2330.00
2022-09-12T07:19:47.161Z,2638.00
2022-09-12T07:20:47.145Z,2681.00
2022-09-12T07:21:47.132Z,2278.00
2022-09-12T07:22:47.133Z,2894.00
2022-09-12T07:23:47.420Z,2826.00
2022-09-12T07:24:47.109Z,1802.00
2022-09-12T07:25:47.094Z,3644.00
2022-09-12T07:26:47.081Z,1528.00
2022-09-12T07:27:51.021Z,2634.00
2022-09-12T07:28:47.062Z,2696.00
2022-09-12T07:29:47.072Z,1575.00
2022-09-12T07:30:47.067Z,2663.00
2022-09-12T07:31:47.027Z,2516.00
2022-09-12T07:32:47.148Z,2461.00
2022-09-12T07:33:51.171Z,2294.00
2022-09-12T07:34:48.034Z,2233.00
2022-09-12T07:35:46.989Z,3043.00
2022-09-12T07:36:46.979Z,2960.00
2022-09-12T07:37:46.965Z,2513.00
2022-09-12T07:38:47.116Z,2789.00
2022-09-12T07:39:53.030Z,2441.00
2022-09-12T07:40:46.942Z,3275.00
2022-09-12T07:41:47.130Z,3583.00
2022-09-12T07:42:46.911Z,956.00
2022-09-12T07:43:46.989Z,2876.00
2022-09-12T07:44:46.895Z,3597.00
2022-09-12T07:45:46.994Z,2987.00
2022-09-12T07:46:46.874Z,3505.00
2022-09-12T07:47:46.858Z,3050.00
2022-09-12T07:48:46.854Z,3152.00
2022-09-12T07:49:46.838Z,2933.00
2022-09-12T07:50:46.829Z,2813.00
2022-09-12T07:51:46.820Z,3995.00
2022-09-12T07:52:46.814Z,5272.00
2022-09-12T07:53:46.901Z,1325.00
2022-09-12T07:54:46.786Z,4536.00
2022-09-12T07:55:46.777Z,3698.00
2022-09-12T07:56:46.767Z,3240.00
2022-09-12T07:57:46.757Z,4089.00
2022-09-12T07:58:46.744Z,3523.00
2022-09-12T07:59:52.810Z,3412.00
2022-09-12T08:00:47.810Z,4228.00
2022-09-12T08:01:46.774Z,3891.00
2022-09-12T08:02:46.756Z,3899.00
2022-09-12T08:03:46.788Z,3825.00
2022-09-12T08:04:46.684Z,3973.00
2022-09-12T08:05:46.669Z,3787.00
2022-09-12T08:06:46.668Z,4403.00
2022-09-12T08:07:46.652Z,4663.00
2022-09-12T08:08:46.645Z,3879.00
2022-09-12T08:09:46.634Z,3925.00
2022-09-12T08:10:46.627Z,5022.00
2022-09-12T08:11:46.610Z,4440.00
2022-09-12T08:12:46.596Z,3984.00
2022-09-12T08:13:49.574Z,3557.00
2022-09-12T08:14:46.578Z,3880.00
2022-09-12T08:15:46.604Z,4108.00
2022-09-12T08:16:46.569Z,3602.00
2022-09-12T08:17:46.575Z,4326.00
2022-09-12T08:18:46.537Z,4978.00
2022-09-12T08:19:46.548Z,3893.00
2022-09-12T08:20:46.516Z,5200.00
2022-09-12T08:21:46.505Z,4536.00
2022-09-12T08:22:46.498Z,4553.00
2022-09-12T08:23:46.637Z,5213.00
2022-09-12T08:24:46.509Z,6015.00
2022-09-12T08:25:46.469Z,1800.00
2022-09-12T08:26:46.454Z,8078.00
2022-09-12T08:27:46.447Z,5862.00
2022-09-12T08:28:46.434Z,5813.00
2022-09-12T08:29:46.420Z,5021.00
2022-09-12T08:30:46.436Z,5366.00
2022-09-12T08:31:46.400Z,3939.00
2022-09-12T08:32:46.395Z,6468.00
2022-09-12T08:33:46.582Z,4753.00
2022-09-12T08:34:46.374Z,4949.00
2022-09-12T08:35:46.356Z,5592.00
2022-09-12T08:36:46.356Z,6240.00
2022-09-12T08:37:46.336Z,6903.00
2022-09-12T08:38:46.331Z,1361.00
2022-09-12T08:39:46.469Z,5858.00
2022-09-12T08:40:46.307Z,5782.00
2022-09-12T08:41:46.296Z,5730.00
2022-09-12T08:42:46.287Z,5959.00
2022-09-12T08:43:46.419Z,5759.00
2022-09-12T08:44:46.265Z,5743.00
2022-09-12T08:45:46.281Z,5863.00
2022-09-12T08:46:47.045Z,5789.00
2022-09-12T08:47:46.237Z,5811.00
2022-09-12T08:48:46.226Z,5744.00
2022-09-12T08:49:46.241Z,5789.00
2022-09-12T08:50:49.826Z,5741.00
2022-09-12T08:51:46.194Z,5700.00
2022-09-12T08:52:46.189Z,5780.00
2022-09-12T08:53:46.299Z,5768.00
2022-09-12T08:54:46.167Z,5769.00
2022-09-12T08:55:46.163Z,5835.00
2022-09-12T08:56:46.140Z,5842.00
2022-09-12T08:57:46.137Z,5877.00
2022-09-12T08:58:46.122Z,5906.00
2022-09-12T08:59:46.131Z,5885.00
2022-09-12T09:00:46.104Z,5848.00
2022-09-12T09:01:46.158Z,5869.00
2022-09-12T09:02:46.204Z,5876.00
2022-09-12T09:03:46.318Z,5874.00
2022-09-12T09:04:46.061Z,5919.00
2022-09-12T09:05:46.076Z,5975.00
2022-09-12T09:06:46.053Z,5985.00
2022-09-12T09:07:46.030Z,6028.00
2022-09-12T09:08:46.025Z,6008.00
2022-09-12T09:09:46.017Z,6065.00
2022-09-12T09:10:46.004Z,6074.00
2022-09-12T09:11:46.107Z,6101.00
2022-09-12T09:12:45.985Z,6166.00
2022-09-12T09:13:46.103Z,6189.00
2022-09-12T09:14:51.976Z,6211.00
2022-09-12T09:15:46.017Z,6271.00
2022-09-12T09:16:45.949Z,6392.00
2022-09-12T09:17:45.939Z,6503.00
2022-09-12T09:18:45.928Z,6677.00
2022-09-12T09:19:50.121Z,6766.00
2022-09-12T09:20:45.913Z,6817.00
2022-09-12T09:21:45.918Z,6813.00
2022-09-12T09:22:45.891Z,6979.00
2022-09-12T09:23:45.989Z,7104.00
2022-09-12T09:24:45.870Z,7024.00
2022-09-12T09:25:45.895Z,6955.00
2022-09-12T09:26:45.853Z,7138.00
2022-09-12T09:27:45.841Z,7205.00
2022-09-12T09:28:45.833Z,7252.00
2022-09-12T09:29:45.825Z,7489.00
2022-09-12T09:30:45.942Z,7554.00
2022-09-12T09:31:45.806Z,7319.00
2022-09-12T09:32:45.803Z,7281.00
2022-09-12T09:33:46.036Z,7460.00
2022-09-12T09:34:45.979Z,7606.00
2022-09-12T09:35:45.769Z,7623.00
2022-09-12T09:36:45.756Z,7651.00
2022-09-12T09:37:45.773Z,7839.00
2022-09-12T09:38:45.903Z,7985.00
2022-09-12T09:39:45.809Z,7992.00
2022-09-12T09:40:51.730Z,8137.00
2022-09-12T09:41:45.712Z,8251.00
2022-09-12T09:42:45.716Z,8332.00
2022-09-12T09:43:45.695Z,8533.00
2022-09-12T09:44:45.690Z,8817.00
2022-09-12T09:45:52.036Z,8821.00
2022-09-12T09:46:45.667Z,9079.00
2022-09-12T09:47:45.657Z,7893.00
2022-09-12T09:48:45.667Z,7516.00
2022-09-12T09:49:45.849Z,14625.00
2022-09-12T09:50:45.637Z,19657.00
2022-09-12T09:52:34.341Z,82285.00
2022-09-12T09:53:28.329Z,80727.00
2022-09-12T09:54:28.301Z,79793.00
2022-09-12T09:55:28.290Z,79318.00
2022-09-12T09:56:34.287Z,77719.00
2022-09-12T09:57:28.274Z,77363.00
2022-09-12T09:58:28.262Z,77892.00
2022-09-12T09:59:28.254Z,78766.00
2022-09-12T10:00:28.251Z,79591.00
2022-09-12T10:01:28.316Z,79818.00
2022-09-12T10:02:28.297Z,80645.00
2022-09-12T10:03:28.218Z,82437.00
2022-09-12T10:04:28.219Z,83217.00
2022-09-12T10:05:28.205Z,83468.00
2022-09-12T10:06:34.223Z,83442.00
2022-09-12T10:07:28.190Z,81607.00
2022-09-12T10:08:28.177Z,78591.00
2022-09-12T10:09:28.197Z,80545.00
2022-09-12T10:10:28.175Z,81188.00
2022-09-12T10:11:28.159Z,81576.00
2022-09-12T10:12:28.250Z,82244.00
2022-09-12T10:13:28.143Z,81401.00
2022-09-12T10:14:28.134Z,80804.00
2022-09-12T10:15:28.154Z,80920.00
2022-09-12T10:16:28.324Z,80624.00
2022-09-12T10:17:33.186Z,81915.00
2022-09-12T10:18:30.301Z,80139.00
2022-09-12T10:19:34.094Z,77187.00
2022-09-12T10:20:28.077Z,76018.00
2022-09-12T10:21:28.092Z,76988.00
2022-09-12T10:22:34.273Z,77576.00
2022-09-12T10:23:34.057Z,77907.00
2022-09-12T10:24:28.045Z,81624.00
2022-09-12T10:25:28.059Z,82408.00
2022-09-12T10:26:28.230Z,80896.00
2022-09-12T10:27:28.019Z,81199.00
2022-09-12T10:28:28.020Z,79149.00
2022-09-12T10:29:28.011Z,80428.00
2022-09-12T10:30:28.158Z,82055.00
2022-09-12T10:31:27.990Z,81764.00
2022-09-12T10:32:30.896Z,81134.00
2022-09-12T10:33:27.975Z,79227.00
2022-09-12T10:34:27.982Z,77825.00
2022-09-12T10:35:27.962Z,77692.00
2022-09-12T10:36:27.951Z,76004.00
2022-09-12T10:37:34.151Z,75934.00
2022-09-12T10:38:27.943Z,76029.00
2022-09-12T10:39:27.928Z,76238.00
2022-09-12T10:40:27.924Z,77785.00
2022-09-12T10:41:33.948Z,78915.00
2022-09-12T10:42:27.905Z,78020.00
2022-09-12T10:43:27.897Z,75871.00
2022-09-12T10:44:27.895Z,76812.00
2022-09-12T10:45:28.186Z,80568.00
2022-09-12T10:47:08.629Z,78615.00
2022-09-12T10:48:07.357Z,79923.00
2022-09-12T10:49:08.607Z,78546.00
2022-09-12T10:50:02.593Z,77942.00
2022-09-12T10:51:02.581Z,78100.00
2022-09-12T10:52:02.583Z,81170.00
2022-09-12T10:53:02.575Z,80713.00
2022-09-12T10:54:04.566Z,80134.00
2022-09-12T10:55:02.754Z,79478.00
2022-09-12T10:56:02.552Z,79101.00
2022-09-12T10:57:02.574Z,81065.00
2022-09-12T10:58:04.599Z,80270.00
2022-09-12T10:59:02.530Z,80258.00
2022-09-12T11:00:02.527Z,81176.00
2022-09-12T11:01:02.604Z,82191.00
2022-09-12T11:02:02.562Z,80775.00
2022-09-12T11:03:02.906Z,80246.00
2022-09-12T11:04:02.699Z,82962.00
2022-09-12T11:05:02.490Z,81594.00
2022-09-12T11:06:08.492Z,80906.00
2022-09-12T11:07:02.481Z,81339.00
2022-09-12T11:08:02.478Z,83547.00
2022-09-12T11:09:02.499Z,81150.00
2022-09-12T11:10:02.456Z,78524.00
2022-09-12T11:11:02.712Z,78212.00
2022-09-12T11:12:02.447Z,76295.00
2022-09-12T11:13:02.467Z,77370.00
2022-09-12T11:14:02.442Z,76200.00
2022-09-12T11:15:02.433Z,76287.00
2022-09-12T11:16:02.475Z,76222.00
2022-09-12T11:17:02.424Z,76208.00
2022-09-12T11:18:02.616Z,76222.00
2022-09-12T11:19:02.446Z,76326.00
2022-09-12T11:20:02.404Z,77756.00
2022-09-12T11:21:02.399Z,77295.00
2022-09-12T11:22:02.391Z,76456.00
2022-09-12T11:23:02.404Z,78249.00
2022-09-12T11:24:02.483Z,80263.00
2022-09-12T11:25:08.377Z,77173.00
2022-09-12T11:26:41.122Z,78668.00
2022-09-12T11:27:41.303Z,77856.00
2022-09-12T11:28:44.102Z,78644.00
2022-09-12T11:29:43.100Z,78359.00
2022-09-12T11:30:41.125Z,77271.00
2022-09-12T11:31:41.081Z,76302.00
2022-09-12T11:32:41.078Z,77977.00
2022-09-12T11:33:43.197Z,78459.00
2022-09-12T11:34:41.274Z,80553.00
2022-09-12T11:35:41.058Z,77972.00
2022-09-12T11:36:41.257Z,77693.00
2022-09-12T11:37:41.049Z,77013.00
2022-09-12T11:38:43.098Z,76389.00
2022-09-12T11:39:41.119Z,76383.00
2022-09-12T11:40:41.033Z,76292.00
2022-09-12T11:41:41.024Z,76191.00
2022-09-12T11:42:41.026Z,76297.00
2022-09-12T11:43:41.017Z,78628.00
2022-09-12T11:44:41.009Z,81698.00
2022-09-12T11:45:41.263Z,82848.00
2022-09-12T11:46:41.009Z,82920.00
2022-09-12T11:47:40.996Z,78531.00
2022-09-12T11:48:40.993Z,76584.00
2022-09-12T11:49:40.985Z,76606.00
2022-09-12T11:50:40.979Z,76792.00
2022-09-12T11:51:40.983Z,76585.00
2022-09-12T11:52:40.965Z,76704.00
2022-09-12T11:53:47.076Z,76878.00
2022-09-12T11:54:40.955Z,77098.00
2022-09-12T11:55:40.953Z,76619.00
2022-09-12T11:56:40.950Z,76298.00
2022-09-12T11:57:40.996Z,76253.00
2022-09-12T11:58:40.939Z,76317.00
2022-09-12T11:59:40.931Z,75717.00
2022-09-12T12:00:40.956Z,76057.00
2022-09-12T12:01:45.036Z,76025.00
2022-09-12T12:02:42.195Z,76692.00
2022-09-12T12:03:46.986Z,76125.00
2022-09-12T12:04:46.914Z,76559.00
2022-09-12T12:05:40.902Z,78375.00
2022-09-12T12:06:47.103Z,81684.00
2022-09-12T12:07:44.761Z,81423.00
2022-09-12T12:08:40.884Z,77158.00
2022-09-12T12:09:40.883Z,76216.00
2022-09-12T12:10:46.887Z,79003.00
2022-09-12T12:11:40.872Z,78930.00
2022-09-12T12:12:46.873Z,79340.00
2022-09-12T12:13:41.066Z,76582.00
2022-09-12T12:14:40.855Z,76492.00
2022-09-12T12:15:40.922Z,76886.00
2022-09-12T12:16:40.866Z,76571.00
2022-09-12T12:17:40.837Z,76684.00
2022-09-12T12:18:47.135Z,76288.00
2022-09-12T12:19:41.086Z,76139.00
2022-09-12T12:20:40.820Z,76409.00
2022-09-12T12:21:46.824Z,75860.00
2022-09-12T12:22:40.813Z,77567.00
2022-09-12T12:23:46.890Z,83140.00
2022-09-12T12:24:40.801Z,83127.00
2022-09-12T12:25:40.797Z,81616.00
2022-09-12T12:26:40.805Z,80596.00
2022-09-12T12:27:40.841Z,82407.00
2022-09-12T12:28:40.787Z,80592.00
2022-09-12T12:29:46.986Z,79314.00
2022-09-12T12:30:40.766Z,79480.00
2022-09-12T12:31:40.770Z,79245.00
2022-09-12T12:32:40.783Z,77766.00